createdAt,value
2023-01-02T00:01:32.124Z,92.14
2023-01-02T00:03:59.967Z,92.12
2023-01-02T00:06:27.972Z,92.20
2023-01-02T00:08:57.730Z,92.27
2023-01-02T00:11:25.677Z,92.28
2023-01-02T00:13:53.511Z,92.34
2023-01-02T00:16:21.640Z,92.41
2023-01-02T00:18:49.443Z,92.53
2023-01-02T00:21:17.817Z,92.55
2023-01-02T00:23:45.838Z,92.63
2023-01-02T00:26:14.328Z,92.73
2023-01-02T00:28:42.081Z,92.81
2023-01-02T00:31:13.685Z,92.93
2023-01-02T00:33:41.697Z,93.03
2023-01-02T00:36:12.863Z,93.14
2023-01-02T00:38:41.327Z,93.09
2023-01-02T00:41:09.637Z,93.15
2023-01-02T00:43:37.633Z,93.12
2023-01-02T00:46:11.248Z,93.11
2023-01-02T00:48:35.533Z,93.04
2023-01-02T00:51:03.513Z,92.96
2023-01-02T00:53:31.482Z,92.89
2023-01-02T00:55:58.879Z,92.88
2023-01-02T00:58:26.646Z,92.89
2023-01-02T01:00:54.427Z,92.84
2023-01-02T01:03:22.221Z,92.84
2023-01-02T01:05:50.222Z,92.93
2023-01-02T01:08:17.990Z,93.04
2023-01-02T01:10:45.654Z,93.04
2023-01-02T01:13:13.333Z,93.02
2023-01-02T01:15:41.657Z,93.00
2023-01-02T01:18:09.335Z,92.97
2023-01-02T01:20:40.138Z,93.00
2023-01-02T01:23:07.911Z,92.98
2023-01-02T01:25:37.436Z,92.93
2023-01-02T01:28:05.147Z,92.93
2023-01-02T01:30:33.008Z,92.92
2023-01-02T01:33:00.492Z,92.98
2023-01-02T01:35:28.129Z,92.98
2023-01-02T01:37:56.154Z,92.91
2023-01-02T01:40:23.917Z,92.92
2023-01-02T01:42:53.945Z,92.94
2023-01-02T01:45:21.336Z,92.95
2023-01-02T01:47:55.197Z,92.94
2023-01-02T01:50:32.089Z,92.88
2023-01-02T01:53:16.343Z,92.88
2023-01-02T01:55:55.780Z,92.79
2023-01-02T01:58:36.343Z,92.75
2023-01-02T02:01:04.497Z,92.88
2023-01-02T02:03:34.546Z,92.90
2023-01-02T02:06:04.412Z,92.94
2023-01-02T02:08:55.848Z,92.83
2023-01-02T02:11:23.783Z,92.75
2023-01-02T02:13:52.008Z,92.71
2023-01-02T02:16:25.268Z,92.79
2023-01-02T02:19:04.448Z,92.85
2023-01-02T02:22:10.861Z,92.90
2023-01-02T02:25:00.294Z,93.00
2023-01-02T02:27:57.514Z,93.02
2023-01-02T02:30:38.246Z,93.12
2023-01-02T02:33:16.056Z,93.07
2023-01-02T02:36:19.485Z,93.03
2023-01-02T02:39:27.696Z,93.01
2023-01-02T02:42:30.113Z,92.97
2023-01-02T02:45:05.994Z,93.10
2023-01-02T02:47:53.887Z,93.18
2023-01-02T02:50:32.577Z,93.08
2023-01-02T02:53:14.135Z,92.94
2023-01-02T02:55:52.717Z,92.77
2023-01-02T02:58:23.139Z,92.70
2023-01-02T03:00:51.095Z,92.65
2023-01-02T03:03:22.991Z,92.62
2023-01-02T03:06:20.731Z,92.61
2023-01-02T03:09:12.084Z,92.76
2023-01-02T03:12:03.120Z,92.78
2023-01-02T03:15:03.579Z,92.72
2023-01-02T03:17:51.729Z,92.71
2023-01-02T03:20:23.853Z,92.80
2023-01-02T03:22:57.037Z,92.85
2023-01-02T03:25:25.121Z,92.98
2023-01-02T03:27:57.607Z,93.00
2023-01-02T03:30:25.679Z,93.07
2023-01-02T03:33:00.418Z,93.06
2023-01-02T03:35:32.884Z,93.11
2023-01-02T03:38:05.346Z,93.11
2023-01-02T03:40:40.305Z,93.06
2023-01-02T03:43:18.388Z,93.17
2023-01-02T03:46:06.249Z,93.06
2023-01-02T03:48:43.770Z,92.92
2023-01-02T03:51:12.804Z,92.91
2023-01-02T03:53:40.848Z,92.99
2023-01-02T03:56:43.926Z,92.95
2023-01-02T03:59:38.465Z,92.81
2023-01-02T04:02:32.837Z,92.86
2023-01-02T04:05:24.213Z,92.94
2023-01-02T04:08:02.982Z,92.92
2023-01-02T04:10:33.753Z,92.92
2023-01-02T04:13:06.487Z,92.92
2023-01-02T04:15:36.696Z,92.96
2023-01-02T04:18:16.052Z,93.05
2023-01-02T04:20:49.393Z,93.19
2023-01-02T04:23:22.103Z,93.25
2023-01-02T04:26:01.228Z,93.32
2023-01-02T04:28:32.319Z,93.35
2023-01-02T04:31:11.434Z,93.41
2023-01-02T04:33:55.705Z,93.41
2023-01-02T04:36:24.097Z,93.28
2023-01-02T04:38:52.477Z,92.94
2023-01-02T04:41:26.846Z,92.82
2023-01-02T04:43:58.627Z,92.91
2023-01-02T04:46:28.712Z,92.81
2023-01-02T04:48:57.152Z,92.84
2023-01-02T04:51:25.376Z,92.71
2023-01-02T04:53:55.229Z,92.67
2023-01-02T04:56:23.310Z,92.80
2023-01-02T04:58:51.206Z,92.79
2023-01-02T05:01:21.123Z,93.12
2023-01-02T05:03:52.225Z,93.25
2023-01-02T05:06:20.176Z,93.18
2023-01-02T05:08:48.074Z,93.28
2023-01-02T05:11:20.074Z,93.44
2023-01-02T05:13:48.088Z,93.71
2023-01-02T05:16:15.864Z,94.04
2023-01-02T05:18:43.525Z,94.35
2023-01-02T05:21:31.818Z,94.24
2023-01-02T05:24:02.991Z,93.98
2023-01-02T05:26:32.470Z,93.95
2023-01-02T05:29:01.083Z,93.76
2023-01-02T05:31:29.383Z,93.83
2023-01-02T05:33:59.007Z,93.86
2023-01-02T05:36:27.697Z,93.79
2023-01-02T05:38:55.748Z,93.67
2023-01-02T05:41:25.443Z,93.78
2023-01-02T05:43:55.149Z,93.83
2023-01-02T05:46:23.161Z,93.61
2023-01-02T05:48:51.209Z,93.57
2023-01-02T05:51:20.015Z,93.62
2023-01-02T05:53:47.878Z,93.59
2023-01-02T05:56:18.173Z,93.53
2023-01-02T05:58:48.780Z,93.52
2023-01-02T06:01:20.675Z,93.47
2023-01-02T06:03:52.628Z,93.38
2023-01-02T06:06:23.508Z,93.32
2023-01-02T06:08:51.333Z,93.24
2023-01-02T06:11:19.240Z,93.07
2023-01-02T06:13:47.074Z,93.20
2023-01-02T06:16:15.040Z,93.20
2023-01-02T06:18:42.856Z,93.30
2023-01-02T06:21:15.170Z,93.30
2023-01-02T06:23:43.611Z,93.86
2023-01-02T06:26:15.807Z,94.30
2023-01-02T06:28:45.112Z,94.44
2023-01-02T06:31:15.378Z,94.21
2023-01-02T06:33:43.499Z,94.20
2023-01-02T06:36:18.741Z,93.78
2023-01-02T06:38:46.878Z,93.45
2023-01-02T06:41:15.627Z,93.19
2023-01-02T06:43:47.003Z,93.07
2023-01-02T06:46:18.725Z,94.26
2023-01-02T06:48:46.945Z,94.71
2023-01-02T06:51:18.376Z,94.56
2023-01-02T06:53:46.057Z,94.26
2023-01-02T06:56:17.315Z,93.76
2023-01-02T06:58:45.448Z,93.66
2023-01-02T07:01:17.811Z,93.34
2023-01-02T07:03:46.116Z,92.59
2023-01-02T07:06:18.580Z,92.26
2023-01-02T07:08:47.536Z,92.20
2023-01-02T07:11:22.223Z,92.01
2023-01-02T07:13:53.051Z,92.19
2023-01-02T07:16:22.885Z,92.61
2023-01-02T07:18:53.432Z,92.09
2023-01-02T07:21:22.181Z,91.68
2023-01-02T07:23:50.091Z,91.56
2023-01-02T07:26:18.547Z,91.21
2023-01-02T07:28:47.304Z,90.98
2023-01-02T07:31:19.030Z,90.78
2023-01-02T07:33:47.176Z,90.16
2023-01-02T07:36:18.372Z,89.46
2023-01-02T07:38:52.358Z,89.47
2023-01-02T07:41:24.008Z,89.12
2023-01-02T07:43:57.562Z,88.91
2023-01-02T07:46:26.009Z,88.88
2023-01-02T07:48:53.690Z,88.79
2023-01-02T07:51:26.949Z,89.28
2023-01-02T07:53:57.124Z,88.80
2023-01-02T07:56:26.393Z,89.07
2023-01-02T07:58:54.356Z,88.47
2023-01-02T08:01:22.578Z,87.38
2023-01-02T08:03:51.193Z,87.24
2023-01-02T08:06:19.873Z,87.03
2023-01-02T08:08:48.485Z,86.22
2023-01-02T08:11:20.769Z,86.35
2023-01-02T08:13:49.963Z,86.21
2023-01-02T08:16:21.040Z,86.35
2023-01-02T08:18:51.639Z,86.37
2023-01-02T08:21:19.429Z,85.95
2023-01-02T08:23:47.418Z,86.08
2023-01-02T08:26:15.580Z,85.44
2023-01-02T08:28:43.647Z,85.17
2023-01-02T08:31:17.909Z,84.79
2023-01-02T08:33:55.497Z,84.51
2023-01-02T08:36:24.141Z,84.38
2023-01-02T08:38:54.311Z,83.25
2023-01-02T08:41:40.300Z,83.71
2023-01-02T08:44:08.579Z,83.61
2023-01-02T08:46:42.284Z,83.47
2023-01-02T08:49:09.143Z,82.95
2023-01-02T08:51:37.149Z,83.06
2023-01-02T08:54:05.468Z,83.23
2023-01-02T08:56:35.037Z,83.05
2023-01-02T08:59:09.608Z,82.10
2023-01-02T09:01:41.475Z,82.94
2023-01-02T09:04:12.917Z,82.33
2023-01-02T09:06:52.547Z,81.68
2023-01-02T09:09:23.457Z,80.87
2023-01-02T09:47:21.526Z,75.53
2023-01-02T09:50:03.061Z,75.59
2023-01-02T09:52:38.552Z,75.40
2023-01-02T09:55:19.169Z,75.80
2023-01-02T09:57:55.650Z,75.86
2023-01-02T10:00:30.233Z,76.46
2023-01-02T10:03:15.283Z,75.89
2023-01-02T10:06:11.570Z,75.66
2023-01-02T10:09:24.585Z,75.26
2023-01-02T10:12:00.821Z,74.81
2023-01-02T10:14:56.234Z,73.63
2023-01-02T10:17:27.751Z,74.02
2023-01-02T10:20:25.732Z,73.69
2023-01-02T10:22:57.997Z,74.20
2023-01-02T10:25:39.593Z,73.07
2023-01-02T10:28:32.646Z,72.57
2023-01-02T10:31:07.642Z,73.14
2023-01-02T10:33:44.016Z,72.54
2023-01-02T10:36:28.928Z,73.05
2023-01-02T10:39:21.664Z,73.04
2023-01-02T10:41:54.262Z,73.07
2023-01-02T10:44:30.104Z,72.83
2023-01-02T10:46:59.582Z,72.77
2023-01-02T10:49:27.394Z,72.12
2023-01-02T10:52:22.349Z,71.70
2023-01-02T10:54:59.882Z,71.71
2023-01-02T10:57:44.620Z,71.34
2023-01-02T11:00:28.260Z,71.16
2023-01-02T11:03:02.016Z,70.73
2023-01-02T11:05:31.363Z,70.82
2023-01-02T11:07:59.873Z,69.40
2023-01-02T11:10:34.462Z,68.85
2023-01-02T11:13:11.832Z,68.37
2023-01-02T11:16:00.161Z,67.68
2023-01-02T11:18:32.262Z,66.83
2023-01-02T11:21:04.216Z,66.45
2023-01-02T11:23:42.790Z,66.91
2023-01-02T11:26:16.063Z,66.55
2023-01-02T11:28:43.941Z,66.78
2023-01-02T11:31:14.794Z,66.24
2023-01-02T11:33:44.047Z,66.54
2023-01-02T11:36:17.124Z,65.06
2023-01-02T11:38:51.412Z,65.00
2023-01-02T11:41:59.364Z,64.88
2023-01-02T11:44:49.243Z,65.43
2023-01-02T11:47:22.442Z,65.53
2023-01-02T11:49:50.967Z,65.40
2023-01-02T11:52:24.199Z,65.43
2023-01-02T11:55:18.474Z,65.42
2023-01-02T11:58:01.429Z,65.29
2023-01-02T12:00:32.690Z,65.25
2023-01-02T12:03:18.323Z,65.05
2023-01-02T12:06:06.786Z,64.37
2023-01-02T12:08:57.473Z,64.41
2023-01-02T12:11:45.751Z,64.41
2023-01-02T12:14:23.827Z,63.85
2023-01-02T12:17:17.799Z,63.92
2023-01-02T12:20:25.868Z,64.09
2023-01-02T12:23:15.997Z,64.14
2023-01-02T12:25:49.454Z,64.24
2023-01-02T12:28:57.073Z,64.07
2023-01-02T12:32:01.204Z,64.26
2023-01-02T12:34:50.309Z,64.55
2023-01-02T12:37:48.423Z,64.92
2023-01-02T12:40:50.135Z,65.07
2023-01-02T12:43:36.275Z,65.40
2023-01-02T12:46:48.838Z,65.45
2023-01-02T12:49:40.574Z,65.72
2023-01-02T12:52:20.285Z,65.32
2023-01-02T12:55:02.691Z,65.25
2023-01-02T12:57:56.500Z,65.48
2023-01-02T13:00:55.902Z,65.75
2023-01-02T13:03:44.588Z,65.13
2023-01-02T13:06:50.317Z,65.07
2023-01-02T13:09:37.909Z,64.94
2023-01-02T13:12:29.083Z,65.18
2023-01-02T13:15:13.582Z,65.11
2023-01-02T13:18:10.956Z,65.23
2023-01-02T13:21:10.045Z,65.04
2023-01-02T13:23:43.657Z,65.41
2023-01-02T13:26:22.529Z,65.24
2023-01-02T13:29:06.270Z,65.50
2023-01-02T13:31:47.508Z,65.47
2023-01-02T13:34:27.983Z,65.69
2023-01-02T13:37:13.001Z,65.50
2023-01-02T13:39:45.602Z,65.89
2023-01-02T13:42:48.944Z,66.14
2023-01-02T13:45:24.042Z,66.18
2023-01-02T13:48:03.324Z,66.54
2023-01-02T13:50:34.817Z,66.73
2023-01-02T13:53:25.952Z,66.70
2023-01-02T13:56:11.429Z,66.84
2023-01-02T13:58:47.475Z,66.89
2023-01-02T14:01:26.460Z,67.13
2023-01-02T14:04:19.166Z,67.08
2023-01-02T14:06:53.678Z,67.34
2023-01-02T14:09:20.787Z,67.62
2023-01-02T14:11:58.637Z,67.95
2023-01-02T14:14:48.124Z,68.26
2023-01-02T14:17:33.422Z,68.61
2023-01-02T14:20:36.455Z,69.05
2023-01-02T14:23:08.292Z,69.39
2023-01-02T14:25:46.423Z,69.76
2023-01-02T14:28:29.010Z,69.96
2023-01-02T14:30:58.023Z,70.22
2023-01-02T14:33:35.586Z,70.49
2023-01-02T14:36:14.539Z,70.74
2023-01-02T14:38:56.843Z,71.02
2023-01-02T14:42:11.903Z,71.29
2023-01-02T14:44:59.795Z,71.51
2023-01-02T14:47:40.908Z,71.90
2023-01-02T14:50:23.084Z,72.12
2023-01-02T14:53:29.895Z,72.43
2023-01-02T14:56:00.985Z,72.57
2023-01-02T14:58:45.133Z,72.79
2023-01-02T15:01:42.848Z,72.92
2023-01-02T15:04:27.647Z,73.17
2023-01-02T15:07:19.086Z,73.38
2023-01-02T15:09:58.366Z,73.43
2023-01-02T15:12:49.097Z,73.56
2023-01-02T15:15:22.022Z,73.88
2023-01-02T15:17:54.664Z,74.26
2023-01-02T15:20:26.783Z,74.41
2023-01-02T17:02:26.774Z,80.81
2023-01-02T17:04:54.612Z,80.95
2023-01-02T17:07:22.795Z,81.11
2023-01-02T17:09:50.992Z,81.23
2023-01-02T17:12:19.067Z,81.30
2023-01-02T17:14:47.039Z,81.35
2023-01-02T17:17:14.723Z,81.47
2023-01-02T17:19:42.617Z,81.60
2023-01-02T17:22:10.603Z,81.69
2023-01-02T17:24:38.889Z,81.80
2023-01-02T17:27:06.745Z,81.96
2023-01-02T17:29:34.652Z,82.07
2023-01-02T17:32:02.758Z,82.23
2023-01-02T17:34:32.117Z,82.32
2023-01-02T17:36:59.981Z,82.40
2023-01-02T17:39:27.869Z,82.53
2023-01-02T17:41:55.719Z,82.71
2023-01-02T17:44:23.588Z,82.87
2023-01-02T17:47:23.362Z,82.95
2023-01-02T17:49:22.835Z,83.20
2023-01-02T17:51:53.175Z,83.21
2023-01-02T17:54:21.916Z,83.30
2023-01-02T17:56:51.632Z,83.56
2023-01-02T17:59:19.693Z,83.67
2023-01-02T18:01:48.851Z,83.71
2023-01-02T18:04:17.930Z,83.72
2023-01-02T18:06:46.195Z,83.83
2023-01-02T18:09:24.114Z,83.89
2023-01-02T18:11:52.338Z,83.96
2023-01-02T18:14:27.907Z,84.12
2023-01-02T18:16:56.907Z,84.19
2023-01-02T18:19:29.571Z,84.15
2023-01-02T18:21:57.448Z,84.30
2023-01-02T18:24:31.743Z,84.40
2023-01-02T18:27:20.150Z,84.39
2023-01-02T18:30:12.058Z,84.45
2023-01-02T18:32:49.824Z,84.50
2023-01-02T18:38:23.907Z,84.68
2023-01-02T18:40:52.885Z,84.70
2023-01-02T18:43:37.450Z,84.68
2023-01-02T18:46:18.518Z,84.74
2023-01-02T18:48:47.328Z,84.82
2023-01-02T18:51:22.863Z,84.90
2023-01-02T18:53:53.482Z,84.90
2023-01-02T18:56:31.043Z,84.97
2023-01-02T18:59:25.443Z,85.07
2023-01-02T19:01:55.247Z,85.13
2023-01-02T19:04:28.877Z,85.26
2023-01-02T19:07:01.546Z,85.40
2023-01-02T19:09:38.399Z,85.45
2023-01-02T19:12:36.419Z,85.56
2023-01-02T19:15:46.338Z,85.68
2023-01-02T19:18:26.987Z,85.78
2023-01-02T19:21:11.738Z,85.84
2023-01-02T19:24:05.866Z,85.85
2023-01-02T19:26:45.521Z,85.96
2023-01-02T19:29:27.761Z,85.92
2023-01-02T19:36:42.966Z,85.95
2023-01-02T19:39:47.824Z,85.96
2023-01-02T19:46:56.939Z,86.05
2023-01-02T19:49:32.948Z,86.16
2023-01-02T19:52:01.781Z,86.26
2023-01-02T19:55:10.300Z,86.31
2023-01-02T20:00:58.447Z,86.31
2023-01-02T20:03:48.994Z,86.28
2023-01-02T20:06:18.767Z,86.24
2023-01-02T20:08:47.233Z,86.23
2023-01-02T20:11:33.610Z,86.19
2023-01-02T20:14:01.946Z,86.16
2023-01-02T20:16:30.476Z,86.21
2023-01-02T20:18:58.509Z,86.35
2023-01-02T20:21:29.277Z,86.39
2023-01-02T20:23:57.740Z,86.47
2023-01-02T20:26:25.722Z,86.53
2023-01-02T20:28:53.948Z,86.50
2023-01-02T20:31:21.985Z,86.48
2023-01-02T20:33:50.162Z,86.47
2023-01-02T20:36:18.547Z,86.53
2023-01-02T20:38:46.790Z,86.54
2023-01-02T20:41:14.805Z,86.56
2023-01-02T20:43:43.146Z,86.58
2023-01-02T20:46:11.232Z,86.63
2023-01-02T20:48:39.452Z,86.62
2023-01-02T20:51:07.229Z,86.68
2023-01-02T20:53:36.271Z,86.69
2023-01-02T20:56:07.667Z,86.82
2023-01-02T20:58:35.396Z,86.86
2023-01-02T21:01:03.321Z,86.92
2023-01-02T21:03:33.905Z,87.03
2023-01-02T21:06:01.671Z,87.00
2023-01-02T21:08:29.879Z,87.05
2023-01-02T21:10:57.770Z,87.15
2023-01-02T21:13:25.923Z,87.20
2023-01-02T21:15:57.543Z,87.29
2023-01-02T21:18:29.991Z,87.33
2023-01-02T21:21:02.004Z,87.35
2023-01-02T21:23:30.825Z,87.40
2023-01-02T21:25:59.362Z,87.41
2023-01-02T21:28:27.493Z,87.45
2023-01-02T21:30:55.981Z,87.44
2023-01-02T21:33:28.719Z,87.51
2023-01-02T21:36:01.639Z,87.50
2023-01-02T21:38:30.151Z,87.59
2023-01-02T21:41:17.164Z,87.61
2023-01-02T21:43:45.928Z,87.71
2023-01-02T21:46:14.457Z,87.68
2023-01-02T21:48:42.468Z,87.74
2023-01-02T21:51:10.573Z,87.74
2023-01-02T21:53:38.640Z,87.72
2023-01-02T21:56:07.846Z,87.68
2023-01-02T21:58:36.070Z,87.78
2023-01-02T22:01:04.247Z,87.88
2023-01-02T22:03:32.326Z,87.95
2023-01-02T22:06:00.277Z,88.15
2023-01-02T22:08:28.224Z,88.20
2023-01-02T22:10:57.955Z,88.40
2023-01-02T22:13:25.824Z,88.73
2023-01-02T22:15:53.873Z,88.79
2023-01-02T22:18:21.653Z,88.86
2023-01-02T22:20:49.776Z,88.97
2023-01-02T22:23:17.814Z,89.06
2023-01-02T22:25:45.637Z,89.15
2023-01-02T22:28:13.633Z,89.34
2023-01-02T22:30:41.267Z,89.66
2023-01-02T22:33:11.685Z,90.07
2023-01-02T22:35:39.529Z,90.99
2023-01-02T22:38:07.275Z,91.45
2023-01-02T22:40:35.037Z,91.26
2023-01-02T22:43:04.769Z,91.26
2023-01-02T22:45:38.018Z,91.30
2023-01-02T22:48:12.283Z,91.55
2023-01-02T22:50:47.064Z,91.70
2023-01-02T22:53:33.196Z,91.65
2023-01-02T22:56:04.818Z,91.83
2023-01-02T22:58:32.674Z,92.18
2023-01-02T23:01:04.034Z,92.16
2023-01-02T23:03:41.984Z,92.23
2023-01-02T23:06:10.348Z,92.80
2023-01-02T23:08:40.420Z,92.76
2023-01-02T23:11:10.191Z,92.61
2023-01-02T23:13:39.222Z,92.50
2023-01-02T23:16:26.658Z,92.35
2023-01-02T23:19:14.302Z,92.23
2023-01-02T23:21:46.188Z,92.08
2023-01-02T23:24:19.109Z,91.98
2023-01-02T23:26:51.844Z,91.89
2023-01-02T23:29:21.542Z,91.67
2023-01-02T23:31:50.900Z,91.62
2023-01-02T23:34:23.425Z,91.48
2023-01-02T23:36:54.311Z,91.32
2023-01-02T23:39:27.185Z,91.22
2023-01-02T23:41:56.006Z,91.15
2023-01-02T23:44:25.670Z,91.10
2023-01-02T23:46:54.739Z,91.02
2023-01-02T23:49:23.135Z,90.89
2023-01-02T23:51:51.646Z,90.80
2023-01-02T23:54:20.595Z,90.61
2023-01-02T23:56:50.619Z,90.47
2023-01-02T23:59:22.669Z,90.30
